createdAt,value
2022-09-06T00:00:02.646Z,285
2022-09-06T00:00:34.487Z,270
2022-09-06T00:01:06.416Z,305
2022-09-06T00:01:36.216Z,5
2022-09-06T00:01:54.410Z,309
2022-09-06T00:02:26.331Z,329
2022-09-06T00:02:57.615Z,269
2022-09-06T00:03:31.063Z,304
2022-09-06T00:04:02.531Z,314
2022-09-06T00:04:35.453Z,328
2022-09-06T00:05:05.762Z,305
2022-09-06T00:05:34.508Z,313
2022-09-06T00:05:53.679Z,314
2022-09-06T00:06:26.348Z,248
2022-09-06T00:06:57.526Z,273
2022-09-06T00:07:29.509Z,2
2022-09-06T00:08:01.587Z,286
2022-09-06T00:08:33.584Z,278
2022-09-06T00:09:05.490Z,304
2022-09-06T00:09:35.198Z,304
2022-09-06T00:09:53.495Z,307
2022-09-06T00:10:26.282Z,333
2022-09-06T00:11:00.833Z,339
2022-09-06T00:11:30.360Z,338
2022-09-06T00:12:02.594Z,338
2022-09-06T00:12:35.563Z,311
2022-09-06T00:13:05.570Z,328
2022-09-06T00:13:35.878Z,328
2022-09-06T00:14:10.311Z,303
2022-09-06T00:14:34.379Z,321
2022-09-06T00:14:57.534Z,338
2022-09-06T00:15:30.366Z,318
2022-09-06T00:16:03.567Z,319
2022-09-06T00:16:33.629Z,324
2022-09-06T00:17:05.458Z,355
2022-09-06T00:17:34.952Z,326
2022-09-06T00:17:54.198Z,316
2022-09-06T00:18:25.475Z,273
2022-09-06T00:18:43.418Z,273
2022-09-06T00:19:14.238Z,261
2022-09-06T00:19:35.450Z,252
2022-09-06T00:20:01.698Z,267
2022-09-06T00:20:36.180Z,273
2022-09-06T00:21:05.432Z,284
2022-09-06T00:21:35.400Z,275
2022-09-06T00:21:53.477Z,294
2022-09-06T00:22:25.576Z,279
2022-09-06T00:22:43.642Z,298
2022-09-06T00:23:14.122Z,307
2022-09-06T00:23:34.474Z,2
2022-09-06T00:24:02.397Z,355
2022-09-06T00:24:34.398Z,343
2022-09-06T00:25:05.702Z,338
2022-09-06T00:25:36.265Z,338
2022-09-06T00:25:54.409Z,359
2022-09-06T00:26:25.428Z,345
2022-09-06T00:26:42.450Z,345
2022-09-06T00:27:13.623Z,331
2022-09-06T00:27:34.420Z,331
2022-09-06T00:28:01.607Z,276
2022-09-06T00:28:35.186Z,276
2022-09-06T00:29:05.459Z,276
2022-09-06T00:29:35.768Z,276
2022-09-06T00:29:53.531Z,253
2022-09-06T00:30:27.577Z,279
2022-09-06T00:30:57.523Z,253
2022-09-06T00:31:29.606Z,277
2022-09-06T00:32:02.069Z,322
2022-09-06T00:32:34.155Z,247
2022-09-06T00:33:05.416Z,293
2022-09-06T00:33:36.036Z,353
2022-09-06T00:33:54.257Z,291
2022-09-06T00:34:25.535Z,307
2022-09-06T00:34:42.539Z,315
2022-09-06T00:35:14.352Z,266
2022-09-06T00:35:35.473Z,256
2022-09-06T00:36:01.415Z,257
2022-09-06T00:36:34.378Z,258
2022-09-06T00:37:05.523Z,258
2022-09-06T00:37:37.295Z,258
2022-09-06T00:38:09.777Z,258
2022-09-06T00:38:37.360Z,258
2022-09-06T00:38:58.963Z,263
2022-09-06T00:39:29.555Z,263
2022-09-06T00:40:02.005Z,263
2022-09-06T00:40:35.417Z,265
2022-09-06T00:41:06.463Z,265
2022-09-06T00:41:34.459Z,265
2022-09-06T00:41:54.157Z,253
2022-09-06T00:42:25.425Z,260
2022-09-06T00:42:44.281Z,260
2022-09-06T00:43:14.239Z,260
2022-09-06T00:43:36.197Z,260
2022-09-06T00:44:02.443Z,260
2022-09-06T00:44:35.878Z,244
2022-09-06T00:45:06.626Z,244
2022-09-06T00:45:34.384Z,249
2022-09-06T00:45:53.628Z,249
2022-09-06T00:46:28.209Z,249
2022-09-06T00:46:57.541Z,250
2022-09-06T00:47:31.022Z,249
2022-09-06T00:48:02.437Z,250
2022-09-06T00:48:35.175Z,251
2022-09-06T00:49:05.533Z,251
2022-09-06T00:49:36.542Z,254
2022-09-06T00:49:54.156Z,285
2022-09-06T00:50:25.603Z,344
2022-09-06T00:51:00.409Z,255
2022-09-06T00:51:29.502Z,257
2022-09-06T00:52:02.239Z,258
2022-09-06T00:52:33.421Z,258
2022-09-06T00:53:06.220Z,257
2022-09-06T00:53:34.463Z,257
2022-09-06T00:53:53.512Z,257
2022-09-06T00:54:27.797Z,257
2022-09-06T00:54:57.440Z,257
2022-09-06T00:55:29.536Z,257
2022-09-06T00:56:01.542Z,257
2022-09-06T00:56:34.286Z,258
2022-09-06T00:57:05.470Z,253
2022-09-06T00:57:35.247Z,275
2022-09-06T00:58:25.581Z,290
2022-09-06T00:58:58.094Z,287
2022-09-06T00:59:29.415Z,287
2022-09-06T01:00:03.313Z,287
2022-09-06T01:00:33.915Z,287
2022-09-06T01:01:06.213Z,282
2022-09-06T01:01:35.324Z,283
2022-09-06T01:01:53.591Z,282
2022-09-06T01:02:26.339Z,289
2022-09-06T01:02:57.426Z,281
2022-09-06T01:03:29.607Z,281
2022-09-06T01:04:01.409Z,121
2022-09-06T01:04:33.572Z,99
2022-09-06T01:05:05.539Z,91
2022-09-06T01:05:35.759Z,91
2022-09-06T01:05:54.841Z,91
2022-09-06T01:06:25.588Z,91
2022-09-06T01:06:58.151Z,89
2022-09-06T01:07:29.545Z,35
2022-09-06T01:08:01.389Z,35
2022-09-06T01:08:34.712Z,35
2022-09-06T01:09:05.505Z,35
2022-09-06T01:09:35.979Z,35
2022-09-06T01:09:53.460Z,35
2022-09-06T01:10:26.444Z,35
2022-09-06T01:10:57.509Z,29
2022-09-06T01:11:30.115Z,30
2022-09-06T01:12:01.432Z,30
2022-09-06T01:12:33.543Z,30
2022-09-06T01:13:05.423Z,30
2022-09-06T01:13:35.216Z,30
2022-09-06T01:13:54.172Z,30
2022-09-06T01:14:25.407Z,30
2022-09-06T01:14:59.439Z,30
2022-09-06T01:15:29.675Z,35
2022-09-06T01:16:01.587Z,35
2022-09-06T01:16:33.406Z,35
2022-09-06T01:17:05.410Z,35
2022-09-06T01:17:34.421Z,36
2022-09-06T01:17:53.433Z,55
2022-09-06T01:18:26.334Z,76
2022-09-06T01:18:57.456Z,94
2022-09-06T01:19:30.127Z,50
2022-09-06T01:20:01.540Z,51
2022-09-06T01:20:34.843Z,52
2022-09-06T01:21:05.494Z,53
2022-09-06T01:21:34.471Z,52
2022-09-06T01:21:53.454Z,52
2022-09-06T01:22:25.394Z,52
2022-09-06T01:22:58.208Z,52
2022-09-06T01:23:30.531Z,52
2022-09-06T01:24:01.532Z,52
2022-09-06T01:24:33.394Z,52
2022-09-06T01:25:05.573Z,52
2022-09-06T01:25:34.435Z,52
2022-09-06T01:25:55.285Z,20
2022-09-06T01:26:26.087Z,6
2022-09-06T01:26:58.767Z,7
2022-09-06T01:27:30.187Z,22
2022-09-06T01:28:01.588Z,22
2022-09-06T01:28:34.877Z,22
2022-09-06T01:29:05.396Z,23
2022-09-06T01:29:35.606Z,22
2022-09-06T01:29:54.174Z,23
2022-09-06T01:30:25.710Z,41
2022-09-06T01:30:42.919Z,41
2022-09-06T01:31:14.223Z,41
2022-09-06T01:31:34.424Z,41
2022-09-06T01:32:01.443Z,119
2022-09-06T01:32:35.784Z,119
2022-09-06T01:33:05.490Z,94
2022-09-06T01:33:35.704Z,93
2022-09-06T01:33:54.859Z,93
2022-09-06T01:34:25.538Z,41
2022-09-06T01:34:58.789Z,44
2022-09-06T01:35:30.562Z,52
2022-09-06T01:36:01.394Z,52
2022-09-06T01:36:36.039Z,52
2022-09-06T01:37:10.618Z,57
2022-09-06T01:37:34.497Z,88
2022-09-06T01:37:53.559Z,70
2022-09-06T01:38:26.357Z,65
2022-09-06T01:38:59.111Z,66
2022-09-06T01:39:29.439Z,66
2022-09-06T01:40:02.618Z,66
2022-09-06T01:40:34.298Z,67
2022-09-06T01:41:05.375Z,72
2022-09-06T01:41:36.184Z,72
2022-09-06T01:41:54.262Z,46
2022-09-06T01:42:25.479Z,30
2022-09-06T01:42:58.116Z,36
2022-09-06T01:43:29.406Z,122
2022-09-06T01:44:02.257Z,106
2022-09-06T01:44:33.406Z,106
2022-09-06T01:45:06.679Z,106
2022-09-06T01:45:35.307Z,106
2022-09-06T01:45:53.594Z,106
2022-09-06T01:46:25.591Z,106
2022-09-06T01:46:43.038Z,106
2022-09-06T01:47:13.570Z,106
2022-09-06T01:47:34.482Z,81
2022-09-06T01:48:02.098Z,60
2022-09-06T01:48:33.435Z,59
2022-09-06T01:49:06.162Z,59
2022-09-06T01:49:34.353Z,59
2022-09-06T01:49:53.463Z,59
2022-09-06T01:50:26.400Z,59
2022-09-06T01:50:57.375Z,59
2022-09-06T01:51:30.497Z,59
2022-09-06T01:52:03.633Z,59
2022-09-06T01:52:36.116Z,59
2022-09-06T01:53:06.183Z,59
2022-09-06T01:53:35.484Z,59
2022-09-06T01:53:53.387Z,57
2022-09-06T01:54:25.535Z,57
2022-09-06T01:54:58.776Z,56
2022-09-06T01:55:29.512Z,57
2022-09-06T01:56:01.412Z,56
2022-09-06T01:56:33.494Z,56
2022-09-06T01:57:05.791Z,56
2022-09-06T01:57:35.630Z,56
2022-09-06T01:57:53.407Z,56
2022-09-06T01:58:27.477Z,56
2022-09-06T01:58:57.468Z,56
2022-09-06T01:59:29.492Z,43
2022-09-06T02:00:02.277Z,46
2022-09-06T02:00:33.379Z,46
2022-09-06T02:01:06.349Z,52
2022-09-06T02:01:36.579Z,32
2022-09-06T02:01:53.635Z,93
2022-09-06T02:02:26.197Z,94
2022-09-06T02:02:58.415Z,66
2022-09-06T02:03:30.396Z,82
2022-09-06T02:04:01.529Z,81
2022-09-06T02:04:34.229Z,82
2022-09-06T02:05:05.561Z,86
2022-09-06T02:05:35.300Z,174
2022-09-06T02:05:54.353Z,176
2022-09-06T02:06:26.390Z,177
2022-09-06T02:06:57.406Z,193
2022-09-06T02:07:30.392Z,198
2022-09-06T02:08:01.797Z,202
2022-09-06T02:08:33.444Z,213
2022-09-06T02:09:05.479Z,213
2022-09-06T02:09:34.486Z,213
2022-09-06T02:09:54.280Z,213
2022-09-06T02:10:27.199Z,213
2022-09-06T02:10:57.487Z,213
2022-09-06T02:11:31.061Z,213
2022-09-06T02:12:02.070Z,213
2022-09-06T02:12:34.175Z,213
2022-09-06T02:13:05.379Z,213
2022-09-06T02:13:34.412Z,213
2022-09-06T02:13:55.490Z,213
2022-09-06T02:14:25.476Z,213
2022-09-06T02:14:42.474Z,213
2022-09-06T02:15:14.327Z,213
2022-09-06T02:15:34.410Z,213
2022-09-06T02:16:02.322Z,213
2022-09-06T02:16:33.574Z,213
2022-09-06T02:17:05.521Z,213
2022-09-06T02:17:34.389Z,213
2022-09-06T02:17:53.335Z,213
2022-09-06T02:18:25.954Z,213
2022-09-06T02:18:57.483Z,213
2022-09-06T02:19:29.627Z,213
2022-09-06T02:20:01.475Z,213
2022-09-06T02:20:33.475Z,213
2022-09-06T02:21:05.419Z,214
2022-09-06T02:21:34.636Z,214
2022-09-06T02:21:54.897Z,214
2022-09-06T02:22:27.352Z,214
2022-09-06T02:22:57.462Z,214
2022-09-06T02:23:29.525Z,215
2022-09-06T02:24:02.372Z,215
2022-09-06T02:24:33.386Z,215
2022-09-06T02:25:05.575Z,215
2022-09-06T02:25:35.320Z,215
2022-09-06T02:25:53.708Z,215
2022-09-06T02:26:25.610Z,215
2022-09-06T02:26:42.361Z,215
2022-09-06T02:27:13.404Z,215
2022-09-06T02:27:34.476Z,215
2022-09-06T02:28:01.962Z,215
2022-09-06T02:28:33.593Z,215
2022-09-06T02:29:07.177Z,215
2022-09-06T02:29:37.060Z,215
2022-09-06T02:29:53.461Z,215
2022-09-06T02:30:26.058Z,215
2022-09-06T02:30:42.365Z,215
2022-09-06T02:31:14.381Z,216
2022-09-06T02:31:35.357Z,216
2022-09-06T02:32:01.460Z,216
2022-09-06T02:32:36.577Z,216
2022-09-06T02:33:06.292Z,216
2022-09-06T02:33:34.471Z,216
2022-09-06T02:33:53.348Z,216
2022-09-06T02:34:26.430Z,216
2022-09-06T02:34:59.361Z,216
2022-09-06T02:35:29.602Z,216
2022-09-06T02:36:02.348Z,216
2022-09-06T02:36:34.241Z,216
2022-09-06T02:37:05.451Z,216
2022-09-06T02:37:36.002Z,215
2022-09-06T02:37:53.683Z,215
2022-09-06T02:38:25.455Z,215
2022-09-06T02:38:58.309Z,216
2022-09-06T02:39:30.600Z,216
2022-09-06T02:40:03.497Z,216
2022-09-06T02:40:34.087Z,216
2022-09-06T02:41:06.367Z,216
2022-09-06T02:41:34.376Z,216
2022-09-06T02:41:54.380Z,216
2022-09-06T02:42:25.946Z,216
2022-09-06T02:42:57.380Z,216
2022-09-06T02:43:30.018Z,216
2022-09-06T02:44:01.666Z,216
2022-09-06T02:44:34.157Z,216
2022-09-06T02:45:05.595Z,216
2022-09-06T02:45:34.480Z,216
2022-09-06T02:45:54.331Z,216
2022-09-06T02:46:26.427Z,216
2022-09-06T02:46:58.586Z,216
2022-09-06T02:47:29.560Z,216
2022-09-06T02:48:01.649Z,216
2022-09-06T02:48:33.344Z,216
2022-09-06T02:49:05.461Z,216
2022-09-06T02:49:34.532Z,216
2022-09-06T02:49:53.383Z,216
2022-09-06T02:50:26.228Z,216
2022-09-06T02:50:57.390Z,216
2022-09-06T02:51:30.058Z,216
2022-09-06T02:52:04.595Z,216
2022-09-06T02:52:36.181Z,216
2022-09-06T02:53:06.319Z,216
2022-09-06T02:53:36.159Z,216
2022-09-06T02:53:54.077Z,216
2022-09-06T02:54:25.448Z,216
2022-09-06T02:54:57.395Z,216
2022-09-06T02:55:29.539Z,216
2022-09-06T02:56:02.388Z,216
2022-09-06T02:56:34.820Z,216
2022-09-06T02:57:05.443Z,216
2022-09-06T02:57:35.318Z,216
2022-09-06T02:57:55.233Z,216
2022-09-06T02:58:27.331Z,216
2022-09-06T02:58:57.520Z,216
2022-09-06T02:59:30.055Z,216
2022-09-06T03:00:01.718Z,216
2022-09-06T03:00:36.058Z,216
2022-09-06T03:01:06.475Z,216
2022-09-06T03:01:35.849Z,216
2022-09-06T03:01:54.130Z,216
2022-09-06T03:02:25.488Z,216
2022-09-06T03:02:44.149Z,216
2022-09-06T03:03:13.340Z,216
2022-09-06T03:03:35.045Z,216
2022-09-06T03:04:02.338Z,216
2022-09-06T03:04:33.330Z,216
2022-09-06T03:05:06.245Z,217
2022-09-06T03:05:35.111Z,217
2022-09-06T03:05:53.432Z,223
2022-09-06T03:06:26.055Z,224
2022-09-06T03:06:57.453Z,224
2022-09-06T03:07:29.322Z,224
2022-09-06T03:08:01.386Z,224
2022-09-06T03:08:33.672Z,224
2022-09-06T03:09:05.418Z,224
2022-09-06T03:09:35.096Z,223
2022-09-06T03:09:54.186Z,223
2022-09-06T03:10:25.502Z,223
2022-09-06T03:10:57.845Z,223
2022-09-06T03:11:30.401Z,223
2022-09-06T03:12:01.389Z,224
2022-09-06T03:12:34.049Z,223
2022-09-06T03:13:05.448Z,223
2022-09-06T03:13:34.397Z,223
2022-09-06T03:13:53.433Z,223
2022-09-06T03:14:26.127Z,223
2022-09-06T03:14:57.368Z,224
2022-09-06T03:15:30.626Z,224
2022-09-06T03:16:01.502Z,223
2022-09-06T03:16:33.352Z,223
2022-09-06T03:17:06.188Z,224
2022-09-06T03:17:34.418Z,224
2022-09-06T03:17:54.157Z,223
2022-09-06T03:18:25.553Z,224
2022-09-06T03:18:58.588Z,224
2022-09-06T03:19:29.354Z,223
2022-09-06T03:20:01.484Z,223
2022-09-06T03:20:36.975Z,223
2022-09-06T03:21:06.385Z,224
2022-09-06T03:21:34.569Z,223
2022-09-06T03:21:53.384Z,223
2022-09-06T03:22:27.004Z,223
2022-09-06T03:22:57.570Z,223
2022-09-06T03:23:30.028Z,224
2022-09-06T03:24:01.430Z,224
2022-09-06T03:24:33.409Z,224
2022-09-06T03:25:05.621Z,223
2022-09-06T03:25:36.190Z,224
2022-09-06T03:26:10.081Z,223
2022-09-06T03:26:34.429Z,223
2022-09-06T03:26:57.396Z,223
2022-09-06T03:27:30.165Z,223
2022-09-06T03:28:01.346Z,224
2022-09-06T03:28:35.060Z,224
2022-09-06T03:29:05.333Z,223
2022-09-06T03:29:38.346Z,224
2022-09-06T03:30:09.542Z,223
2022-09-06T03:30:34.513Z,224
2022-09-06T03:30:58.265Z,224
2022-09-06T03:31:29.335Z,223
2022-09-06T03:32:02.325Z,223
2022-09-06T03:32:33.407Z,224
2022-09-06T03:33:05.374Z,224
2022-09-06T03:33:34.378Z,223
2022-09-06T03:33:53.463Z,223
2022-09-06T03:34:26.021Z,223
2022-09-06T03:34:57.547Z,223
2022-09-06T03:35:29.467Z,223
2022-09-06T03:36:01.358Z,223
2022-09-06T03:36:33.394Z,223
2022-09-06T03:37:05.448Z,223
2022-09-06T03:37:34.402Z,223
2022-09-06T03:37:54.163Z,223
2022-09-06T03:38:25.402Z,223
2022-09-06T03:38:42.705Z,223
2022-09-06T03:39:13.500Z,223
2022-09-06T03:39:35.353Z,223
2022-09-06T03:40:02.318Z,223
2022-09-06T03:40:33.327Z,223
2022-09-06T03:41:06.104Z,223
2022-09-06T03:41:35.590Z,223
2022-09-06T03:41:53.458Z,223
2022-09-06T03:42:27.122Z,223
2022-09-06T03:42:58.352Z,223
2022-09-06T03:43:30.156Z,223
2022-09-06T03:44:01.682Z,223
2022-09-06T03:44:34.059Z,223
2022-09-06T03:45:05.520Z,223
2022-09-06T03:45:35.277Z,223
2022-09-06T03:45:53.594Z,223
2022-09-06T03:46:25.587Z,223
2022-09-06T03:47:02.106Z,223
2022-09-06T03:47:29.316Z,223
2022-09-06T03:48:01.616Z,223
2022-09-06T03:48:34.753Z,223
2022-09-06T03:49:05.302Z,223
2022-09-06T03:49:35.091Z,223
2022-09-06T03:49:53.343Z,223
2022-09-06T03:50:25.602Z,223
2022-09-06T03:50:58.057Z,223
2022-09-06T03:51:30.277Z,223
2022-09-06T03:52:02.227Z,223
2022-09-06T03:52:33.432Z,223
2022-09-06T03:53:05.442Z,223
2022-09-06T03:53:35.710Z,223
2022-09-06T03:53:53.410Z,223
2022-09-06T03:54:26.146Z,224
2022-09-06T03:54:58.099Z,223
2022-09-06T03:55:29.701Z,223
2022-09-06T03:56:01.686Z,223
2022-09-06T03:56:33.326Z,223
2022-09-06T03:57:05.355Z,223
2022-09-06T03:57:34.388Z,223
2022-09-06T03:57:54.046Z,223
2022-09-06T03:58:25.410Z,223
2022-09-06T03:58:58.928Z,223
2022-09-06T03:59:29.350Z,223
2022-09-06T04:00:01.704Z,223
2022-09-06T04:00:33.432Z,223
2022-09-06T04:01:05.538Z,223
2022-09-06T04:01:35.012Z,223
2022-09-06T04:01:53.379Z,223
2022-09-06T04:02:26.170Z,223
2022-09-06T04:03:01.451Z,223
2022-09-06T04:03:30.110Z,223
2022-09-06T04:04:01.308Z,223
2022-09-06T04:04:36.007Z,224
2022-09-06T04:05:05.617Z,224
2022-09-06T04:05:34.515Z,224
2022-09-06T04:05:53.486Z,224
2022-09-06T04:06:25.322Z,224
2022-09-06T04:06:58.491Z,223
2022-09-06T04:07:29.446Z,224
2022-09-06T04:08:02.341Z,224
2022-09-06T04:08:34.746Z,223
2022-09-06T04:09:05.343Z,224
2022-09-06T04:09:35.782Z,223
2022-09-06T04:09:53.399Z,223
2022-09-06T04:10:26.160Z,224
2022-09-06T04:10:57.409Z,224
2022-09-06T04:11:29.377Z,224
2022-09-06T04:12:01.560Z,223
2022-09-06T04:12:33.308Z,224
2022-09-06T04:13:05.382Z,224
2022-09-06T04:13:36.476Z,224
2022-09-06T04:13:54.678Z,223
2022-09-06T04:14:25.422Z,223
2022-09-06T04:14:42.786Z,223
2022-09-06T04:15:13.604Z,223
2022-09-06T04:15:34.374Z,223
2022-09-06T04:16:02.246Z,223
2022-09-06T04:16:34.766Z,223
2022-09-06T04:17:05.487Z,223
2022-09-06T04:17:34.456Z,223
2022-09-06T04:17:54.020Z,223
2022-09-06T04:18:41.127Z,223
2022-09-06T04:19:14.040Z,223
2022-09-06T04:19:34.380Z,223
2022-09-06T04:20:01.429Z,223
2022-09-06T04:20:34.000Z,223
2022-09-06T04:21:05.391Z,223
2022-09-06T04:21:36.143Z,223
2022-09-06T04:21:53.565Z,223
2022-09-06T04:22:26.231Z,223
2022-09-06T04:22:57.381Z,223
2022-09-06T04:23:29.301Z,223
2022-09-06T04:24:01.364Z,223
2022-09-06T04:24:34.404Z,223
2022-09-06T04:25:05.588Z,223
2022-09-06T04:25:34.388Z,223
2022-09-06T04:25:53.427Z,223
2022-09-06T04:26:26.112Z,223
2022-09-06T04:26:57.405Z,223
2022-09-06T04:27:29.996Z,223
2022-09-06T04:28:01.350Z,223
2022-09-06T04:28:36.031Z,223
2022-09-06T04:29:05.426Z,223
2022-09-06T04:29:35.465Z,223
2022-09-06T04:29:53.297Z,223
2022-09-06T04:30:26.441Z,223
2022-09-06T04:31:00.774Z,223
2022-09-06T04:31:29.509Z,223
2022-09-06T04:32:01.591Z,223
2022-09-06T04:32:35.563Z,224
2022-09-06T04:33:05.317Z,224
2022-09-06T04:33:34.390Z,224
2022-09-06T04:33:54.210Z,224
2022-09-06T04:34:25.952Z,224
2022-09-06T04:34:42.463Z,224
2022-09-06T04:35:13.436Z,224
2022-09-06T04:35:35.983Z,224
2022-09-06T04:36:02.260Z,224
2022-09-06T04:36:34.138Z,224
2022-09-06T04:37:05.347Z,224
2022-09-06T04:37:34.415Z,224
2022-09-06T04:37:54.160Z,224
2022-09-06T04:38:25.372Z,224
2022-09-06T04:38:42.652Z,224
2022-09-06T04:39:14.233Z,224
2022-09-06T04:39:35.514Z,224
2022-09-06T04:40:01.675Z,224
2022-09-06T04:40:35.971Z,224
2022-09-06T04:41:07.672Z,224
2022-09-06T04:41:35.677Z,224
2022-09-06T04:41:55.185Z,224
2022-09-06T04:42:25.376Z,224
2022-09-06T04:42:43.466Z,224
2022-09-06T04:43:13.397Z,224
2022-09-06T04:43:34.423Z,224
2022-09-06T04:44:02.262Z,224
2022-09-06T04:44:33.455Z,224
2022-09-06T04:45:05.641Z,224
2022-09-06T04:45:34.547Z,224
2022-09-06T04:45:54.325Z,224
2022-09-06T04:46:26.697Z,224
2022-09-06T04:46:57.305Z,224
2022-09-06T04:47:30.082Z,224
2022-09-06T04:48:04.753Z,224
2022-09-06T04:48:37.587Z,224
2022-09-06T04:49:05.625Z,224
2022-09-06T04:49:34.503Z,224
2022-09-06T04:49:54.024Z,224
2022-09-06T04:50:25.638Z,224
2022-09-06T04:50:42.540Z,224
2022-09-06T04:51:14.309Z,224
2022-09-06T04:51:34.588Z,224
2022-09-06T04:52:02.353Z,224
2022-09-06T04:52:34.475Z,224
2022-09-06T04:53:06.401Z,224
2022-09-06T04:53:34.442Z,224
2022-09-06T04:53:53.508Z,224
2022-09-06T04:54:27.409Z,224
2022-09-06T04:54:57.664Z,224
2022-09-06T04:55:30.228Z,224
2022-09-06T04:56:02.274Z,224
2022-09-06T04:56:34.377Z,224
2022-09-06T04:57:05.475Z,224
2022-09-06T04:57:34.906Z,224
2022-09-06T04:57:55.385Z,224
2022-09-06T04:58:25.453Z,224
2022-09-06T04:58:48.015Z,224
2022-09-06T04:59:15.048Z,224
2022-09-06T04:59:36.249Z,224
2022-09-06T05:00:01.877Z,224
2022-09-06T05:00:36.288Z,224
2022-09-06T05:01:05.518Z,224
2022-09-06T05:01:35.620Z,224
2022-09-06T05:01:54.665Z,224
2022-09-06T05:02:26.577Z,224
2022-09-06T05:02:58.359Z,224
2022-09-06T05:03:29.521Z,224
2022-09-06T05:04:01.478Z,224
2022-09-06T05:04:34.917Z,224
2022-09-06T05:05:05.509Z,224
2022-09-06T05:05:36.305Z,224
2022-09-06T05:05:53.698Z,224
2022-09-06T05:06:28.266Z,224
2022-09-06T05:06:58.592Z,224
2022-09-06T05:07:29.388Z,224
2022-09-06T05:08:03.019Z,224
2022-09-06T05:08:36.043Z,224
2022-09-06T05:09:06.070Z,224
2022-09-06T05:09:36.725Z,224
2022-09-06T05:09:54.484Z,224
2022-09-06T05:10:26.560Z,224
2022-09-06T05:10:57.391Z,224
2022-09-06T05:11:31.517Z,224
2022-09-06T05:12:02.588Z,224
2022-09-06T05:12:33.485Z,224
2022-09-06T05:13:05.756Z,224
2022-09-06T05:13:34.777Z,224
2022-09-06T05:13:53.366Z,224
2022-09-06T05:14:26.398Z,224
2022-09-06T05:14:57.955Z,224
2022-09-06T05:15:29.543Z,224
2022-09-06T05:16:01.669Z,224
2022-09-06T05:16:34.892Z,224
2022-09-06T05:17:06.514Z,224
2022-09-06T05:17:36.741Z,224
2022-09-06T05:17:54.982Z,224
2022-09-06T05:18:26.811Z,224
2022-09-06T05:18:58.372Z,224
2022-09-06T05:19:29.670Z,224
2022-09-06T05:20:01.921Z,224
2022-09-06T05:20:35.281Z,224
2022-09-06T05:21:05.394Z,224
2022-09-06T05:21:37.795Z,224
2022-09-06T05:22:12.647Z,224
2022-09-06T05:22:34.798Z,224
2022-09-06T05:22:59.432Z,224
2022-09-06T05:23:29.629Z,224
2022-09-06T05:24:17.834Z,224
2022-09-06T05:24:49.680Z,224
2022-09-06T05:25:23.540Z,224
2022-09-06T05:25:40.424Z,224
2022-09-06T05:26:09.490Z,224
2022-09-06T05:26:36.166Z,224
2022-09-06T05:26:57.436Z,224
2022-09-06T05:27:30.223Z,224
2022-09-06T05:28:01.432Z,224
2022-09-06T05:28:34.569Z,224
2022-09-06T05:29:05.474Z,224
2022-09-06T05:29:36.069Z,224
2022-09-06T05:29:54.254Z,224
2022-09-06T05:30:26.747Z,224
2022-09-06T05:30:59.074Z,224
2022-09-06T05:31:29.916Z,224
2022-09-06T05:32:03.280Z,224
2022-09-06T05:32:34.097Z,224
2022-09-06T05:33:06.884Z,224
2022-09-06T05:33:35.209Z,224
2022-09-06T05:33:53.580Z,224
2022-09-06T05:34:26.474Z,224
2022-09-06T05:34:57.619Z,224
2022-09-06T05:35:30.299Z,224
2022-09-06T05:36:02.974Z,224
2022-09-06T05:36:35.118Z,224
2022-09-06T05:37:05.412Z,224
2022-09-06T05:37:34.849Z,224
2022-09-06T05:37:53.613Z,224
2022-09-06T05:38:29.184Z,224
2022-09-06T05:38:46.397Z,224
2022-09-06T05:39:13.563Z,224
2022-09-06T05:39:34.646Z,224
2022-09-06T05:40:01.932Z,224
2022-09-06T05:40:33.336Z,224
2022-09-06T05:41:05.579Z,224
2022-09-06T05:41:37.710Z,224
2022-09-06T05:41:53.420Z,224
2022-09-06T05:42:27.499Z,224
2022-09-06T05:42:57.333Z,224
2022-09-06T05:43:30.623Z,224
2022-09-06T05:44:01.785Z,224
2022-09-06T05:44:33.521Z,224
2022-09-06T05:45:06.681Z,224
2022-09-06T05:45:34.698Z,224
2022-09-06T05:45:54.685Z,224
2022-09-06T05:46:25.549Z,224
2022-09-06T05:46:58.342Z,224
2022-09-06T05:47:29.496Z,224
2022-09-06T05:48:01.671Z,224
2022-09-06T05:48:37.226Z,224
2022-09-06T05:49:05.405Z,224
2022-09-06T05:49:34.641Z,224
2022-09-06T05:49:53.390Z,224
2022-09-06T05:50:25.556Z,224
2022-09-06T05:50:59.903Z,224
2022-09-06T05:51:29.418Z,224
2022-09-06T05:52:03.265Z,224
2022-09-06T05:52:34.500Z,224
2022-09-06T05:53:05.440Z,224
2022-09-06T05:53:34.697Z,224
2022-09-06T05:53:53.572Z,224
2022-09-06T05:54:26.207Z,224
2022-09-06T05:54:57.549Z,224
2022-09-06T05:55:31.051Z,224
2022-09-06T05:56:01.433Z,224
2022-09-06T05:56:34.159Z,224
2022-09-06T05:57:07.054Z,224
2022-09-06T05:57:36.531Z,224
2022-09-06T05:57:53.929Z,224
2022-09-06T05:58:25.565Z,224
2022-09-06T05:58:59.146Z,224
2022-09-06T05:59:29.544Z,224
2022-09-06T06:00:02.638Z,224
2022-09-06T06:00:35.484Z,224
2022-09-06T06:01:05.679Z,224
2022-09-06T06:01:38.813Z,224
2022-09-06T06:02:09.690Z,224
2022-09-06T06:02:34.627Z,224
2022-09-06T06:02:57.610Z,224
2022-09-06T06:03:30.122Z,224
2022-09-06T06:04:01.662Z,224
2022-09-06T06:04:33.412Z,224
2022-09-06T06:05:07.787Z,224
2022-09-06T06:05:35.313Z,224
2022-09-06T06:05:55.558Z,224
2022-09-06T06:06:25.414Z,224
2022-09-06T06:06:42.586Z,224
2022-09-06T06:07:15.036Z,224
2022-09-06T06:07:35.252Z,224
2022-09-06T06:08:01.739Z,224
2022-09-06T06:08:33.358Z,224
2022-09-06T06:09:05.532Z,224
2022-09-06T06:09:35.980Z,224
2022-09-06T06:09:54.055Z,224
2022-09-06T06:10:26.205Z,224
2022-09-06T06:10:42.291Z,224
2022-09-06T06:11:14.076Z,224
2022-09-06T06:11:34.699Z,224
2022-09-06T06:12:01.630Z,224
2022-09-06T06:12:34.077Z,224
2022-09-06T06:13:05.447Z,224
2022-09-06T06:13:36.370Z,224
2022-09-06T06:13:53.578Z,224
2022-09-06T06:14:25.513Z,224
2022-09-06T06:14:58.156Z,224
2022-09-06T06:15:29.785Z,224
2022-09-06T06:16:01.638Z,224
2022-09-06T06:16:33.621Z,224
2022-09-06T06:17:05.378Z,224
2022-09-06T06:17:35.968Z,224
2022-09-06T06:17:54.544Z,224
2022-09-06T06:18:26.830Z,224
2022-09-06T06:18:58.604Z,224
2022-09-06T06:19:30.175Z,224
2022-09-06T06:20:02.657Z,224
2022-09-06T06:20:33.442Z,224
2022-09-06T06:21:06.264Z,224
2022-09-06T06:21:34.592Z,224
2022-09-06T06:21:54.238Z,224
2022-09-06T06:22:25.379Z,224
2022-09-06T06:22:43.569Z,224
2022-09-06T06:23:14.380Z,224
2022-09-06T06:23:35.354Z,224
2022-09-06T06:24:01.314Z,224
2022-09-06T06:24:33.482Z,224
2022-09-06T06:25:06.464Z,224
2022-09-06T06:25:34.580Z,224
2022-09-06T06:25:53.470Z,224
2022-09-06T06:26:25.339Z,224
2022-09-06T06:26:43.066Z,224
2022-09-06T06:27:14.312Z,224
2022-09-06T06:27:34.747Z,224
2022-09-06T06:28:01.504Z,224
2022-09-06T06:28:33.328Z,224
2022-09-06T06:29:06.262Z,224
2022-09-06T06:29:34.838Z,224
2022-09-06T06:29:53.578Z,224
2022-09-06T06:30:25.610Z,224
2022-09-06T06:30:42.734Z,224
2022-09-06T06:31:13.488Z,224
2022-09-06T06:31:34.748Z,224
2022-09-06T06:32:03.502Z,224
2022-09-06T06:32:34.014Z,224
2022-09-06T06:33:05.511Z,224
2022-09-06T06:33:34.484Z,224
2022-09-06T06:33:54.144Z,224
2022-09-06T06:34:25.690Z,224
2022-09-06T06:34:43.157Z,224
2022-09-06T06:35:13.470Z,224
2022-09-06T06:35:39.953Z,224
2022-09-06T06:36:01.482Z,224
2022-09-06T06:36:33.479Z,224
2022-09-06T06:37:05.427Z,224
2022-09-06T06:37:35.435Z,224
2022-09-06T06:37:54.182Z,224
2022-09-06T06:38:27.524Z,224
2022-09-06T06:38:57.409Z,224
2022-09-06T06:39:29.466Z,224
2022-09-06T06:40:02.505Z,224
2022-09-06T06:40:33.685Z,224
2022-09-06T06:41:07.031Z,224
2022-09-06T06:41:38.070Z,224
2022-09-06T06:42:09.429Z,224
2022-09-06T06:42:35.218Z,224
2022-09-06T06:42:57.461Z,224